Time;durP1;ratioP1;P1;durP2;ratioP2;P2;SDS_P1;SDS_P2;PMS_P1;PMS_P2;Temp;Humidity;BMP_temperature;BMP_pressure;BME280_temperature;BME280_humidity;BME280_pressure;Samples;Min_cycle;Max_cycle;Signal;HPM_P1;HPM_P2
2022/01/31 00:00:10;;;;;;;10.67;3.57;;;;;;;2.39;82.18;99180.97;5009044;27;103503;-70
2022/01/31 00:02:43;;;;;;;12.00;3.50;;;;;;;2.40;82.70;99185.25;5009009;27;103111;-70
2022/01/31 00:05:12;;;;;;;9.07;3.97;;;;;;;2.41;82.83;99169.59;5003571;27;102573;-70
2022/01/31 00:07:40;;;;;;;10.57;4.07;;;;;;;2.45;82.66;99170.31;5016803;27;103934;-71
2022/01/31 00:10:11;;;;;;;10.33;4.63;;;;;;;2.32;82.99;99159.44;5012402;27;103203;-68
2022/01/31 00:12:49;;;;;;;8.93;3.80;;;;;;;2.39;83.47;99173.97;5009391;27;102629;-68
2022/01/31 00:15:17;;;;;;;8.40;3.70;;;;;;;2.44;82.95;99179.06;5011256;27;102653;-68
2022/01/31 00:17:47;;;;;;;11.57;4.40;;;;;;;2.42;82.81;99173.88;5007823;27;103739;-67
2022/01/31 00:20:15;;;;;;;6.23;3.60;;;;;;;2.47;83.02;99164.16;5028406;27;103134;-68
2022/01/31 00:22:43;;;;;;;14.73;5.27;;;;;;;2.40;83.45;99161.78;5009473;27;102684;-68
2022/01/31 00:25:11;;;;;;;10.63;3.43;;;;;;;2.48;83.09;99147.59;5015722;27;103622;-68
2022/01/31 00:27:39;;;;;;;5.93;3.37;;;;;;;2.45;82.76;99139.88;5020852;27;103702;-68
2022/01/31 00:30:08;;;;;;;10.33;3.63;;;;;;;2.42;83.19;99128.69;4992487;27;104338;-68
2022/01/31 00:32:36;;;;;;;7.70;3.60;;;;;;;2.29;83.81;99117.81;4985044;27;102717;-68
2022/01/31 00:35:07;;;;;;;9.33;3.23;;;;;;;2.39;84.00;99124.44;4984656;27;104163;-70
2022/01/31 00:37:36;;;;;;;9.33;3.97;;;;;;;2.43;82.98;99128.66;4994843;27;103289;-70
2022/01/31 00:40:06;;;;;;;11.20;3.80;;;;;;;2.48;83.19;99124.13;4992951;27;103268;-70
2022/01/31 00:42:36;;;;;;;6.80;3.30;;;;;;;2.46;83.36;99133.78;5008418;27;102694;-70
2022/01/31 00:45:13;;;;;;;8.53;3.60;;;;;;;2.55;83.47;99122.19;4994663;27;102718;-70
2022/01/31 00:47:47;;;;;;;9.97;3.33;;;;;;;2.63;82.95;99115.81;4988441;27;103731;-70
2022/01/31 00:50:19;;;;;;;10.77;3.60;;;;;;;2.67;82.37;99091.28;5007021;27;103263;-70
2022/01/31 00:52:47;;;;;;;15.73;4.33;;;;;;;2.45;82.75;99092.94;4988655;27;102589;-70
2022/01/31 00:55:16;;;;;;;11.97;4.33;;;;;;;2.44;83.72;99090.41;4994984;27;102963;-70
2022/01/31 00:57:44;;;;;;;5.50;2.93;;;;;;;2.62;83.24;99068.88;5005894;27;103543;-70
2022/01/31 01:00:14;;;;;;;9.30;3.77;;;;;;;2.69;82.46;99055.59;4989564;27;104195;-70
2022/01/31 01:02:43;;;;;;;8.40;3.20;;;;;;;2.75;82.91;99052.75;4991048;27;103265;-70
2022/01/31 01:05:11;;;;;;;8.30;2.97;;;;;;;2.73;82.66;99051.09;5003366;27;104306;-70
2022/01/31 01:07:45;;;;;;;12.07;4.30;;;;;;;2.69;82.72;99050.38;4991686;27;104034;-70
2022/01/31 01:10:18;;;;;;;8.70;3.87;;;;;;;2.55;83.41;99052.63;5007226;27;103266;-70
2022/01/31 01:12:47;;;;;;;10.50;3.97;;;;;;;2.56;83.12;99038.66;4990689;27;102732;-70
2022/01/31 01:15:16;;;;;;;15.23;3.43;;;;;;;2.63;83.07;99045.38;4988653;27;103613;-70
2022/01/31 01:17:45;;;;;;;7.73;2.60;;;;;;;2.69;83.37;99034.72;5009877;27;103132;-70
2022/01/31 01:20:16;;;;;;;10.50;3.57;;;;;;;2.74;82.91;99027.56;4992742;27;103128;-70
2022/01/31 01:22:46;;;;;;;6.33;2.87;;;;;;;2.78;82.70;99029.16;4987552;27;102712;-70
2022/01/31 01:25:15;;;;;;;8.10;3.27;;;;;;;2.87;82.85;99028.81;4990600;27;102745;-70
2022/01/31 01:27:47;;;;;;;8.47;3.70;;;;;;;2.89;81.92;99013.97;4998643;28;103956;-71
2022/01/31 01:30:15;;;;;;;7.43;3.33;;;;;;;2.91;82.74;98993.03;4991174;27;103210;-70
2022/01/31 01:32:59;;;;;;;9.47;3.70;;;;;;;2.81;82.66;98979.47;4986911;27;102666;-70
2022/01/31 01:35:32;;;;;;;7.87;3.33;;;;;;;2.86;82.09;98964.47;5006489;27;102753;-70
2022/01/31 01:38:07;;;;;;;9.37;3.60;;;;;;;2.85;82.70;98968.03;5000983;27;103060;-70
2022/01/31 01:40:40;;;;;;;8.63;3.20;;;;;;;2.79;82.91;98957.81;5019413;27;105245;-70
2022/01/31 01:43:12;;;;;;;9.40;3.10;;;;;;;2.83;83.64;98943.75;4985193;27;102681;-70
2022/01/31 01:45:42;;;;;;;12.73;3.73;;;;;;;2.90;82.76;98931.28;4992226;27;103056;-70
2022/01/31 01:48:12;;;;;;;9.00;3.77;;;;;;;2.76;83.30;98920.53;4986232;27;103355;-70
2022/01/31 01:50:43;;;;;;;9.87;3.43;;;;;;;2.84;83.17;98890.63;5002299;27;103239;-70
2022/01/31 01:53:13;;;;;;;7.67;3.53;;;;;;;2.85;83.32;98858.41;5005668;27;102604;-70
2022/01/31 01:55:43;;;;;;;10.93;3.70;;;;;;;2.86;83.33;98854.06;4984739;27;103930;-70
2022/01/31 01:58:15;;;;;;;9.97;3.97;;;;;;;2.72;83.61;98857.16;4990545;27;104374;-70
2022/01/31 02:00:59;;;;;;;12.40;4.10;;;;;;;2.92;82.88;98843.34;4986648;27;105475;-70
2022/01/31 02:03:53;;;;;;;8.37;3.33;;;;;;;2.96;83.63;98817.97;5008515;27;102698;-70
2022/01/31 02:06:27;;;;;;;11.20;3.70;;;;;;;2.91;83.35;98820.78;4989354;27;103687;-70
2022/01/31 02:08:57;;;;;;;10.97;4.13;;;;;;;2.94;83.20;98805.00;5020117;27;104240;-70
2022/01/31 02:11:30;;;;;;;10.17;4.07;;;;;;;2.73;83.95;98796.25;4986410;27;103316;-70
2022/01/31 02:13:59;;;;;;;9.10;3.17;;;;;;;2.82;84.08;98795.06;4983073;27;102670;-70
2022/01/31 02:16:49;;;;;;;8.10;3.50;;;;;;;2.75;83.49;98783.16;4990845;27;103930;-70
2022/01/31 02:19:33;;;;;;;11.17;3.83;;;;;;;2.83;83.41;98778.50;4988870;27;104721;-70
2022/01/31 02:22:19;;;;;;;10.73;3.77;;;;;;;2.81;83.81;98778.53;4989075;27;106016;-70
2022/01/31 02:25:00;;;;;;;7.40;3.83;;;;;;;2.73;83.58;98759.72;5010805;27;102579;-70
2022/01/31 02:28:03;;;;;;;8.93;3.30;;;;;;;2.84;83.23;98762.75;4993251;27;102665;-70
2022/01/31 02:30:32;;;;;;;8.70;3.57;;;;;;;2.90;83.34;98772.97;4990859;27;106043;-70
2022/01/31 02:33:00;;;;;;;8.40;3.33;;;;;;;3.05;82.59;98757.59;5010807;27;103160;-70
2022/01/31 02:35:28;;;;;;;11.37;4.23;;;;;;;2.93;82.65;98764.16;4993015;27;102733;-69
2022/01/31 02:37:58;;;;;;;7.20;3.70;;;;;;;2.93;82.99;98765.00;4992036;27;102687;-70
2022/01/31 02:40:29;;;;;;;7.73;3.37;;;;;;;2.95;83.03;98774.56;5028632;27;104202;-70
2022/01/31 02:43:01;;;;;;;10.33;3.40;;;;;;;2.92;83.17;98767.66;4997491;27;106211;-70
2022/01/31 02:45:31;;;;;;;9.80;3.93;;;;;;;2.98;82.99;98748.28;4989561;27;102651;-70
2022/01/31 02:48:02;;;;;;;9.40;3.83;;;;;;;3.12;82.52;98730.31;4994444;28;104485;-70
2022/01/31 02:50:34;;;;;;;11.20;3.90;;;;;;;3.16;82.28;98722.28;5006088;27;104010;-70
2022/01/31 02:53:13;;;;;;;8.77;3.63;;;;;;;3.22;82.54;98721.19;5007471;27;103065;-70
2022/01/31 02:55:44;;;;;;;10.93;4.00;;;;;;;3.19;82.08;98705.66;4991175;27;102643;-70
2022/01/31 02:58:15;;;;;;;9.23;3.70;;;;;;;3.10;82.51;98679.94;5007364;27;102793;-70
2022/01/31 03:00:44;;;;;;;7.13;3.13;;;;;;;3.10;82.33;98669.47;4987417;27;105066;-70
2022/01/31 03:03:16;;;;;;;11.37;3.30;;;;;;;3.11;82.10;98650.31;4994909;27;105557;-70
2022/01/31 03:05:45;;;;;;;9.23;3.73;;;;;;;3.03;82.04;98657.63;5008169;27;103748;-70
2022/01/31 03:08:16;;;;;;;10.20;3.53;;;;;;;3.10;82.83;98653.81;5013950;27;103717;-70
2022/01/31 03:10:45;;;;;;;9.07;3.53;;;;;;;3.14;82.07;98656.25;4989820;27;104354;-70
2022/01/31 03:13:21;;;;;;;8.67;3.10;;;;;;;3.15;81.62;98651.84;4987521;27;103315;-70
2022/01/31 03:15:52;;;;;;;9.03;3.73;;;;;;;3.02;81.92;98640.25;4989664;27;103777;-69
2022/01/31 03:18:21;;;;;;;7.70;3.77;;;;;;;3.05;81.88;98624.47;5008409;27;104068;-69
2022/01/31 03:20:48;;;;;;;8.60;3.50;;;;;;;3.14;81.59;98604.03;4988831;27;105865;-70
2022/01/31 03:23:20;;;;;;;11.23;3.60;;;;;;;3.03;82.29;98589.75;5012420;27;103272;-69
2022/01/31 03:25:49;;;;;;;11.37;3.40;;;;;;;3.04;81.83;98588.81;5010525;27;102774;-67
2022/01/31 03:28:19;;;;;;;10.43;3.33;;;;;;;3.15;81.79;98582.22;4990000;27;102742;-68
2022/01/31 03:30:47;;;;;;;9.37;3.07;;;;;;;3.13;81.09;98567.53;4992444;28;103814;-68
2022/01/31 03:33:16;;;;;;;9.27;3.80;;;;;;;3.10;81.29;98550.25;5009198;27;103231;-68
2022/01/31 03:35:44;;;;;;;6.40;3.30;;;;;;;3.18;81.38;98544.69;4996293;27;102621;-67
2022/01/31 03:38:14;;;;;;;8.27;3.60;;;;;;;3.16;80.95;98512.59;4989251;27;103706;-68
2022/01/31 03:40:44;;;;;;;8.73;2.87;;;;;;;3.15;80.76;98511.75;4989935;27;104216;-67
2022/01/31 03:43:13;;;;;;;12.63;3.30;;;;;;;3.17;80.92;98530.78;4997734;27;104333;-67
2022/01/31 03:45:44;;;;;;;8.13;3.57;;;;;;;3.27;80.02;98537.28;5002320;27;102649;-68
2022/01/31 03:48:17;;;;;;;7.07;3.17;;;;;;;3.32;80.16;98569.25;4990102;28;103561;-68
2022/01/31 03:50:47;;;;;;;5.97;2.90;;;;;;;3.28;80.37;98559.91;4989398;27;105774;-67
2022/01/31 03:53:15;;;;;;;6.60;3.57;;;;;;;3.26;79.93;98564.31;4991217;27;103890;-67
2022/01/31 03:55:44;;;;;;;8.27;2.83;;;;;;;3.34;80.39;98553.53;4993625;27;102683;-67
2022/01/31 03:58:13;;;;;;;6.80;2.83;;;;;;;3.44;80.04;98565.25;5008014;27;102897;-68
2022/01/31 04:00:50;;;;;;;7.50;3.50;;;;;;;3.43;80.14;98558.31;5006257;27;103218;-67
2022/01/31 04:03:18;;;;;;;8.20;3.30;;;;;;;3.45;80.13;98546.06;5011948;27;103391;-67
2022/01/31 04:05:47;;;;;;;8.13;3.13;;;;;;;3.46;80.05;98540.75;5008919;27;103007;-68
2022/01/31 04:08:16;;;;;;;6.60;3.07;;;;;;;3.45;79.58;98530.41;5016300;27;102909;-68
2022/01/31 04:10:46;;;;;;;6.43;3.30;;;;;;;3.48;79.36;98535.47;5011246;27;102945;-69
2022/01/31 04:13:16;;;;;;;7.57;2.97;;;;;;;3.50;80.01;98533.63;5013541;27;103181;-69
2022/01/31 04:15:44;;;;;;;8.47;3.00;;;;;;;3.42;79.47;98530.53;5005806;27;102551;-68
2022/01/31 04:18:12;;;;;;;12.07;3.40;;;;;;;3.47;79.70;98533.78;5011349;27;102758;-68
2022/01/31 04:20:40;;;;;;;11.37;3.90;;;;;;;3.44;79.10;98520.84;5012017;27;103216;-67
2022/01/31 04:23:11;;;;;;;10.90;3.77;;;;;;;3.51;80.03;98522.25;5006365;27;103101;-68
2022/01/31 04:25:45;;;;;;;9.77;3.17;;;;;;;3.45;79.99;98509.50;5012239;27;102571;-67
2022/01/31 04:28:21;;;;;;;8.50;3.40;;;;;;;3.52;79.83;98500.44;5009591;27;102552;-67
2022/01/31 04:30:54;;;;;;;6.33;3.13;;;;;;;3.52;79.67;98505.66;5006736;27;104021;-68
2022/01/31 04:33:23;;;;;;;6.43;2.70;;;;;;;3.59;79.80;98496.63;5016345;27;104612;-67
2022/01/31 04:35:52;;;;;;;10.83;3.53;;;;;;;3.48;79.84;98493.69;5011021;27;102567;-67
2022/01/31 04:38:21;;;;;;;7.70;3.03;;;;;;;3.52;80.23;98484.78;5008137;27;102635;-70
2022/01/31 04:40:49;;;;;;;8.53;3.40;;;;;;;3.46;80.39;98479.84;5007669;27;103714;-69
2022/01/31 04:43:18;;;;;;;8.60;3.20;;;;;;;3.55;80.00;98462.88;5007380;27;103058;-67
2022/01/31 04:45:48;;;;;;;8.60;3.00;;;;;;;3.56;79.71;98454.97;5007909;27;102673;-70
2022/01/31 04:48:18;;;;;;;7.23;2.70;;;;;;;3.68;79.19;98443.91;5007927;27;102753;-69
2022/01/31 04:50:46;;;;;;;9.27;3.27;;;;;;;3.74;79.99;98432.31;5020584;27;104180;-72
2022/01/31 04:53:15;;;;;;;7.23;3.40;;;;;;;3.71;78.87;98417.66;5009613;27;103331;-71
2022/01/31 04:55:43;;;;;;;8.17;2.83;;;;;;;3.74;78.99;98398.34;5008766;27;102657;-65
2022/01/31 04:58:11;;;;;;;9.00;3.17;;;;;;;3.78;78.24;98390.31;5012171;27;103539;-71
2022/01/31 05:00:41;;;;;;;7.87;3.27;;;;;;;3.85;78.71;98380.38;5003164;27;104076;-71
2022/01/31 05:03:13;;;;;;;8.97;3.27;;;;;;;3.84;78.46;98378.69;5011127;27;103306;-71
2022/01/31 05:05:41;;;;;;;7.10;3.00;;;;;;;3.82;78.30;98365.69;5008387;27;102589;-66
2022/01/31 05:08:10;;;;;;;5.20;2.50;;;;;;;3.87;78.72;98355.03;5018360;27;102689;-65
2022/01/31 05:10:43;;;;;;;6.87;3.00;;;;;;;3.92;77.96;98351.25;5016160;27;103640;-65
2022/01/31 05:13:12;;;;;;;8.97;3.90;;;;;;;3.92;78.07;98338.19;5021062;27;103142;-70
2022/01/31 05:15:42;;;;;;;10.20;2.97;;;;;;;3.92;78.25;98325.13;5008972;27;102560;-70
2022/01/31 05:18:11;;;;;;;6.57;2.90;;;;;;;3.90;78.48;98303.44;5010698;27;102839;-65
2022/01/31 05:20:38;;;;;;;8.90;3.23;;;;;;;3.89;78.47;98286.06;5015401;27;103454;-67
2022/01/31 05:23:07;;;;;;;7.00;3.07;;;;;;;3.91;78.09;98279.00;5014402;27;103349;-64
2022/01/31 05:25:36;;;;;;;8.27;3.07;;;;;;;3.94;78.03;98283.22;5015888;27;102601;-64
2022/01/31 05:28:05;;;;;;;8.87;3.23;;;;;;;4.02;77.73;98292.34;5014252;27;103984;-65
2022/01/31 05:30:33;;;;;;;7.93;2.57;;;;;;;4.08;77.67;98286.78;5012057;27;103269;-64
2022/01/31 05:33:02;;;;;;;5.23;2.87;;;;;;;4.08;77.70;98292.03;5007989;27;103317;-64
2022/01/31 05:35:32;;;;;;;7.30;3.00;;;;;;;4.11;77.44;98285.78;5008383;27;102624;-64
2022/01/31 05:38:02;;;;;;;7.33;3.03;;;;;;;4.15;77.93;98281.25;5003910;27;103007;-64
2022/01/31 05:40:32;;;;;;;7.50;3.00;;;;;;;4.20;77.50;98267.00;5005272;27;103313;-64
2022/01/31 05:43:00;;;;;;;4.20;2.17;;;;;;;4.25;77.94;98262.38;5010211;27;103127;-64
2022/01/31 05:45:28;;;;;;;7.07;3.17;;;;;;;4.26;77.09;98248.38;5005270;27;102683;-64
2022/01/31 05:47:56;;;;;;;4.73;2.60;;;;;;;4.28;77.52;98230.81;5007222;27;102677;-64
2022/01/31 05:50:25;;;;;;;6.13;3.27;;;;;;;4.34;77.90;98219.19;5007217;27;103664;-64
2022/01/31 05:52:53;;;;;;;8.17;2.93;;;;;;;4.29;77.69;98223.81;4997029;27;103171;-64
2022/01/31 05:55:22;;;;;;;10.57;3.30;;;;;;;4.36;77.70;98212.09;5006636;27;102568;-64
2022/01/31 05:57:50;;;;;;;6.27;3.00;;;;;;;4.38;77.07;98232.00;5013606;27;103845;-64
2022/01/31 06:00:21;;;;;;;7.40;3.10;;;;;;;4.38;77.45;98202.41;5005491;27;103668;-64
2022/01/31 06:02:57;;;;;;;7.40;3.40;;;;;;;4.45;77.53;98195.91;5007079;27;103428;-64
2022/01/31 06:05:28;;;;;;;8.63;3.70;;;;;;;4.52;77.44;98192.84;5003379;27;102693;-64
2022/01/31 06:07:56;;;;;;;8.23;3.10;;;;;;;4.54;77.48;98179.69;4998356;27;102616;-67
2022/01/31 06:10:25;;;;;;;7.23;3.13;;;;;;;4.58;77.71;98181.19;5007030;27;103557;-67
2022/01/31 06:12:56;;;;;;;7.80;3.07;;;;;;;4.63;78.02;98181.81;5007239;27;104862;-67
2022/01/31 06:15:24;;;;;;;8.10;3.03;;;;;;;4.65;77.42;98177.31;5002058;27;102574;-67
2022/01/31 06:17:55;;;;;;;9.83;3.83;;;;;;;4.63;78.40;98166.09;5006001;27;102666;-67
2022/01/31 06:20:28;;;;;;;8.27;3.00;;;;;;;4.67;79.37;98167.59;5011065;27;103196;-67
2022/01/31 06:22:57;;;;;;;6.80;3.03;;;;;;;4.64;80.00;98167.78;4988697;27;104136;-67
2022/01/31 06:25:27;;;;;;;9.83;3.40;;;;;;;4.62;80.23;98167.03;5009500;27;102673;-67
2022/01/31 06:27:56;;;;;;;8.20;3.43;;;;;;;4.66;81.04;98163.28;4986428;27;103238;-67
2022/01/31 06:30:26;;;;;;;11.43;2.67;;;;;;;4.56;81.79;98159.50;4988141;27;105087;-68
2022/01/31 06:32:54;;;;;;;7.60;3.00;;;;;;;4.56;82.53;98151.66;4985851;27;105718;-68
2022/01/31 06:35:23;;;;;;;6.73;2.63;;;;;;;4.54;83.13;98153.53;5009927;27;102718;-68
2022/01/31 06:37:53;;;;;;;8.17;3.33;;;;;;;4.42;83.97;98146.38;5005460;27;103022;-68
2022/01/31 06:40:21;;;;;;;6.33;3.40;;;;;;;4.41;84.67;98161.22;4985161;27;104238;-67
2022/01/31 06:42:51;;;;;;;6.47;2.70;;;;;;;4.34;86.14;98159.03;5004711;27;103231;-67
2022/01/31 06:45:19;;;;;;;6.17;2.40;;;;;;;4.30;87.32;98160.97;5008759;27;102525;-67
2022/01/31 06:47:47;;;;;;;6.23;2.53;;;;;;;4.34;87.99;98162.50;5008916;27;102682;-67
2022/01/31 06:50:16;;;;;;;7.77;2.13;;;;;;;4.39;88.66;98164.84;5005130;27;104083;-67
2022/01/31 06:52:47;;;;;;;6.83;2.73;;;;;;;4.24;90.04;98165.72;5009094;27;103196;-67
2022/01/31 06:55:20;;;;;;;10.23;3.07;;;;;;;4.19;90.12;98162.47;5004780;27;102624;-67
2022/01/31 06:57:51;;;;;;;7.00;2.90;;;;;;;4.27;91.14;98165.50;5008730;27;103609;-67
2022/01/31 07:00:21;;;;;;;6.30;3.30;;;;;;;4.35;90.89;98173.81;4987311;27;103178;-67
2022/01/31 07:02:50;;;;;;;7.83;3.23;;;;;;;4.37;90.93;98164.09;5006340;27;103183;-67
2022/01/31 07:05:19;;;;;;;8.47;2.83;;;;;;;4.28;90.59;98172.44;5028811;27;102690;-67
2022/01/31 07:07:47;;;;;;;6.57;2.97;;;;;;;4.30;90.58;98175.81;4996112;27;102777;-67
2022/01/31 07:10:17;;;;;;;7.47;2.60;;;;;;;4.38;90.70;98186.72;5007239;27;103253;-67
2022/01/31 07:12:51;;;;;;;6.43;2.60;;;;;;;4.37;91.43;98174.56;5002923;27;103276;-67
2022/01/31 07:15:19;;;;;;;10.80;3.40;;;;;;;4.32;90.60;98173.97;5012565;27;102654;-67
2022/01/31 07:17:50;;;;;;;6.67;3.03;;;;;;;4.31;91.08;98173.13;5007840;27;103841;-67
2022/01/31 07:20:24;;;;;;;7.43;3.60;;;;;;;4.30;91.42;98167.97;5007203;27;104170;-67
2022/01/31 07:22:57;;;;;;;6.00;2.70;;;;;;;4.25;91.61;98167.38;5012931;27;103210;-66
2022/01/31 07:25:35;;;;;;;5.23;2.80;;;;;;;4.14;93.06;98174.97;5008288;27;102622;-63
2022/01/31 07:28:06;;;;;;;8.43;3.30;;;;;;;4.14;93.46;98161.91;5012350;27;104002;-66
2022/01/31 07:30:35;;;;;;;5.57;2.83;;;;;;;4.20;93.75;98164.19;5006030;27;103629;-66
2022/01/31 07:33:03;;;;;;;5.27;2.80;;;;;;;4.19;93.48;98158.09;5007784;27;103191;-66
2022/01/31 07:35:31;;;;;;;5.10;2.47;;;;;;;4.13;94.64;98168.88;5011087;27;102651;-66
2022/01/31 07:37:59;;;;;;;7.87;3.27;;;;;;;4.19;94.33;98171.19;5010559;27;102663;-66
2022/01/31 07:40:29;;;;;;;5.23;2.30;;;;;;;4.24;94.86;98168.31;4990427;27;104489;-66
2022/01/31 07:42:57;;;;;;;5.60;2.80;;;;;;;4.18;95.40;98171.28;5008666;27;103188;-63
2022/01/31 07:45:27;;;;;;;3.87;2.20;;;;;;;4.10;95.57;98169.91;4993515;28;102689;-64
2022/01/31 07:47:55;;;;;;;4.40;2.27;;;;;;;4.25;94.85;98188.31;5008941;27;103397;-63
2022/01/31 07:50:24;;;;;;;5.87;2.20;;;;;;;4.26;95.06;98176.91;4999917;27;104295;-63
2022/01/31 07:52:52;;;;;;;4.77;2.37;;;;;;;4.14;95.83;98170.59;5006279;27;103303;-64
2022/01/31 07:55:20;;;;;;;4.23;2.23;;;;;;;4.16;95.94;98179.19;5009261;27;102935;-63
2022/01/31 07:57:49;;;;;;;3.50;1.87;;;;;;;4.15;96.20;98181.91;5008826;27;104528;-63
2022/01/31 08:00:18;;;;;;;5.47;2.43;;;;;;;4.21;94.64;98173.72;5008247;27;103248;-63
2022/01/31 08:02:48;;;;;;;3.00;1.50;;;;;;;4.26;94.98;98175.16;4989474;27;104152;-63
2022/01/31 08:05:21;;;;;;;3.50;1.60;;;;;;;4.24;95.18;98181.41;5015441;27;102846;-63
2022/01/31 08:07:49;;;;;;;3.27;1.80;;;;;;;4.26;94.92;98184.78;5005463;27;104131;-63
2022/01/31 08:10:18;;;;;;;3.03;1.60;;;;;;;4.35;94.56;98190.31;4995755;27;104252;-63
2022/01/31 08:12:46;;;;;;;3.20;1.20;;;;;;;4.31;94.68;98204.50;5011630;27;103322;-64
2022/01/31 08:15:22;;;;;;;3.13;1.60;;;;;;;4.35;94.13;98213.84;4989626;28;102673;-63
2022/01/31 08:17:50;;;;;;;2.27;1.40;;;;;;;4.43;93.97;98200.38;5009672;27;102571;-63
2022/01/31 08:20:20;;;;;;;3.43;1.50;;;;;;;4.44;93.25;98202.03;5004498;27;103940;-64
2022/01/31 08:22:47;;;;;;;1.57;1.30;;;;;;;4.47;92.93;98209.72;5010060;27;103159;-67
2022/01/31 08:25:15;;;;;;;2.87;1.50;;;;;;;4.42;93.04;98207.38;4989271;27;102668;-66
2022/01/31 08:27:48;;;;;;;2.20;1.30;;;;;;;4.49;92.85;98203.47;5007910;27;102750;-66
2022/01/31 08:30:25;;;;;;;2.50;1.47;;;;;;;4.50;92.77;98213.03;5006174;27;103615;-66
2022/01/31 08:33:12;;;;;;;2.47;1.20;;;;;;;4.51;92.81;98211.25;5008119;27;103003;-66
2022/01/31 08:35:50;;;;;;;4.67;1.43;;;;;;;4.61;92.19;98212.41;5010661;27;102700;-66
2022/01/31 08:38:19;;;;;;;2.80;1.40;;;;;;;4.60;92.40;98203.72;4992493;27;103582;-66
2022/01/31 08:40:48;;;;;;;2.03;1.10;;;;;;;4.49;92.57;98200.03;5007704;27;104114;-67
2022/01/31 08:43:17;;;;;;;1.77;1.00;;;;;;;4.48;91.04;98196.56;5003515;27;103198;-67
2022/01/31 08:45:48;;;;;;;1.10;1.00;;;;;;;4.62;90.78;98198.41;5004623;27;102809;-67
2022/01/31 08:48:16;;;;;;;0.77;0.77;;;;;;;4.70;90.73;98193.59;5012284;27;103971;-67
2022/01/31 08:50:47;;;;;;;1.30;0.80;;;;;;;4.75;89.95;98188.94;5005365;27;103965;-67
2022/01/31 08:53:16;;;;;;;1.27;0.90;;;;;;;4.81;89.18;98188.59;5013329;27;103284;-67
2022/01/31 08:55:48;;;;;;;2.37;1.00;;;;;;;4.90;88.59;98188.06;5004221;27;102562;-67
2022/01/31 08:58:17;;;;;;;1.10;0.90;;;;;;;4.91;87.69;98184.50;5004640;27;103848;-67
2022/01/31 09:00:58;;;;;;;2.23;1.03;;;;;;;4.97;88.00;98178.91;5004456;27;103206;-67
2022/01/31 09:03:42;;;;;;;1.47;1.13;;;;;;;4.94;87.14;98168.63;5009553;27;104703;-67
2022/01/31 09:06:11;;;;;;;3.13;1.20;;;;;;;5.17;86.71;98165.50;5005247;27;102894;-67
2022/01/31 09:08:40;;;;;;;1.23;1.00;;;;;;;5.06;86.51;98167.91;5012269;27;103829;-67
2022/01/31 09:11:09;;;;;;;2.40;1.50;;;;;;;5.51;86.55;98159.09;4992707;27;103222;-66
2022/01/31 09:13:38;;;;;;;2.77;1.37;;;;;;;5.86;83.51;98149.13;5004995;27;103202;-67
2022/01/31 09:16:08;;;;;;;1.77;1.17;;;;;;;6.07;83.23;98158.28;4990500;28;102765;-66
2022/01/31 09:18:37;;;;;;;3.73;1.30;;;;;;;6.05;81.82;98154.91;4998688;27;102707;-66
2022/01/31 09:21:05;;;;;;;2.83;1.60;;;;;;;5.87;81.96;98150.81;4986123;27;103798;-67
2022/01/31 09:23:34;;;;;;;2.30;1.00;;;;;;;5.96;81.67;98149.38;5006609;27;103151;-67
2022/01/31 09:26:02;;;;;;;1.93;1.10;;;;;;;6.19;79.99;98152.25;4989891;28;102588;-67
2022/01/31 09:28:31;;;;;;;3.63;1.30;;;;;;;6.27;80.25;98157.88;4991864;27;103948;-67
2022/01/31 09:30:59;;;;;;;2.00;0.97;;;;;;;6.29;79.66;98158.59;4994369;27;104023;-66
2022/01/31 09:33:29;;;;;;;2.40;1.00;;;;;;;6.38;80.34;98160.66;5008202;27;102477;-67
2022/01/31 09:35:57;;;;;;;2.27;1.00;;;;;;;6.11;79.04;98161.56;5003598;27;102647;-67
2022/01/31 09:38:26;;;;;;;3.17;1.03;;;;;;;6.38;78.41;98165.91;5007342;27;104077;-67
2022/01/31 09:40:55;;;;;;;3.53;1.20;;;;;;;6.48;77.34;98157.44;5003177;27;103894;-67
2022/01/31 09:43:41;;;;;;;2.17;1.53;;;;;;;6.64;77.96;98164.22;5010645;27;103218;-66
2022/01/31 09:46:34;;;;;;;1.97;1.20;;;;;;;6.69;77.14;98145.53;4989658;27;102924;-67
2022/01/31 09:49:03;;;;;;;3.50;1.53;;;;;;;6.62;78.28;98160.03;4989156;28;103612;-67
2022/01/31 09:51:33;;;;;;;3.03;1.60;;;;;;;6.32;77.70;98155.78;4990064;27;104078;-67
2022/01/31 09:54:04;;;;;;;2.33;1.50;;;;;;;6.31;78.90;98159.38;5003787;27;103273;-66
2022/01/31 09:56:36;;;;;;;2.80;1.17;;;;;;;6.09;78.09;98161.63;5006634;27;103324;-67
2022/01/31 09:59:04;;;;;;;2.70;1.47;;;;;;;6.11;78.23;98157.16;5006336;27;103654;-67
2022/01/31 10:01:35;;;;;;;2.00;1.37;;;;;;;6.11;78.98;98159.78;5007968;27;103210;-66
2022/01/31 10:04:14;;;;;;;5.23;1.77;;;;;;;6.03;78.35;98172.53;5002715;27;104127;-66
2022/01/31 10:06:44;;;;;;;3.00;1.43;;;;;;;5.98;78.43;98158.84;5006446;27;102905;-67
2022/01/31 10:09:17;;;;;;;2.40;1.80;;;;;;;6.00;78.27;98149.13;5006692;27;102882;-67
2022/01/31 10:11:49;;;;;;;3.73;1.37;;;;;;;5.95;78.38;98152.97;5005529;27;102976;-67
2022/01/31 10:17:12;;;;;;;3.50;1.40;;;;;;;5.93;78.24;98176.63;5004547;27;102705;-67
2022/01/31 10:19:55;;;;;;;4.27;1.20;;;;;;;5.96;77.47;98176.47;5007817;27;102633;-67
2022/01/31 10:22:25;;;;;;;1.73;1.10;;;;;;;6.01;78.15;98168.28;5005275;27;104126;-67
2022/01/31 10:24:55;;;;;;;3.53;1.23;;;;;;;6.05;79.02;98164.56;5007392;27;104189;-67
2022/01/31 10:27:27;;;;;;;2.93;1.43;;;;;;;5.87;78.79;98160.47;5004044;27;102682;-67
2022/01/31 10:30:07;;;;;;;2.27;1.50;;;;;;;5.90;78.61;98144.53;5005081;27;102848;-67
2022/01/31 10:32:37;;;;;;;2.93;1.63;;;;;;;5.85;79.54;98157.91;4988431;27;104069;-67
2022/01/31 10:35:09;;;;;;;3.03;1.50;;;;;;;5.98;78.85;98132.63;5014028;27;103756;-67
2022/01/31 10:37:40;;;;;;;4.37;1.60;;;;;;;5.95;78.37;98145.91;5003880;27;102584;-67
2022/01/31 10:43:36;;;;;;;4.67;1.53;;;;;;;5.92;77.62;98133.03;5002897;27;103216;-67
2022/01/31 10:46:09;;;;;;;1.83;1.13;;;;;;;5.92;77.92;98126.94;5003249;27;103432;-67
2022/01/31 10:54:38;;;;;;;3.53;1.40;;;;;;;5.89;76.77;98120.09;5007573;27;103237;-67
2022/01/31 10:57:08;;;;;;;4.30;1.87;;;;;;;6.01;76.64;98115.84;5005176;27;103230;-67
2022/01/31 10:59:40;;;;;;;4.37;2.20;;;;;;;6.08;76.63;98127.66;5002840;27;102848;-68
2022/01/31 11:02:15;;;;;;;4.20;1.23;;;;;;;6.08;76.98;98120.63;4995726;27;103884;-67
2022/01/31 11:04:45;;;;;;;2.70;1.30;;;;;;;6.00;77.31;98115.03;5002289;27;103249;-67
2022/01/31 11:07:17;;;;;;;4.97;1.57;;;;;;;5.98;76.20;98111.63;5014169;27;103809;-67
2022/01/31 11:09:48;;;;;;;2.00;1.50;;;;;;;6.01;76.13;98107.97;5006400;27;102565;-67
2022/01/31 11:12:19;;;;;;;5.77;1.60;;;;;;;6.01;76.19;98110.59;5009744;27;102678;-64
2022/01/31 11:14:53;;;;;;;3.67;1.50;;;;;;;6.14;76.19;98101.88;5002739;27;102965;-64
2022/01/31 11:17:24;;;;;;;2.70;1.50;;;;;;;6.13;75.64;98104.59;4990319;28;103180;-64
2022/01/31 11:19:57;;;;;;;4.30;1.60;;;;;;;6.20;75.17;98106.72;4984522;27;102729;-65
2022/01/31 11:22:33;;;;;;;4.33;1.57;;;;;;;6.34;74.27;98113.72;5002723;27;103855;-64
2022/01/31 11:25:15;;;;;;;4.93;1.23;;;;;;;6.19;74.06;98102.44;5003981;27;103212;-65
2022/01/31 11:27:52;;;;;;;2.90;1.23;;;;;;;6.24;74.35;98108.22;5006501;27;103262;-65
2022/01/31 11:30:22;;;;;;;4.43;1.10;;;;;;;6.36;74.35;98115.31;4986781;27;102572;-66
2022/01/31 11:32:50;;;;;;;2.70;1.20;;;;;;;6.39;74.15;98116.88;4994172;27;103644;-65
2022/01/31 11:35:19;;;;;;;3.90;1.10;;;;;;;6.24;74.91;98113.47;5008461;27;104385;-66
2022/01/31 11:37:49;;;;;;;4.03;1.20;;;;;;;6.14;75.22;98119.41;5008859;27;103245;-65
2022/01/31 11:40:18;;;;;;;3.87;1.03;;;;;;;6.24;75.71;98113.47;5010604;27;102649;-65
2022/01/31 11:42:48;;;;;;;3.03;1.13;;;;;;;6.16;75.98;98122.75;5007061;27;102744;-65
2022/01/31 11:45:19;;;;;;;2.73;1.00;;;;;;;6.01;77.61;98127.19;5006955;27;103884;-65
2022/01/31 11:47:50;;;;;;;1.83;1.33;;;;;;;5.74;77.89;98124.47;5004569;27;103198;-65
2022/01/31 11:50:19;;;;;;;2.87;1.07;;;;;;;5.77;80.64;98126.06;5002024;27;103021;-68
2022/01/31 11:52:51;;;;;;;4.73;1.20;;;;;;;5.76;79.45;98116.50;5006239;27;104021;-68
2022/01/31 11:55:22;;;;;;;5.07;1.70;;;;;;;5.74;79.74;98121.88;5004458;27;104008;-68
2022/01/31 11:57:52;;;;;;;3.30;1.43;;;;;;;5.80;79.61;98123.25;4995128;27;103289;-68
2022/01/31 12:00:22;;;;;;;3.23;1.20;;;;;;;5.79;80.27;98117.16;5022079;27;102648;-68